createdAt,value
2023-03-06T00:00:35.586Z,98483.72
2023-03-06T00:04:38.390Z,98473.34
2023-03-06T00:08:39.832Z,98474.78
2023-03-06T00:12:41.420Z,98469.19
2023-03-06T00:16:42.911Z,98463.38
2023-03-06T00:20:45.927Z,98468.16
2023-03-06T00:24:47.342Z,98464.41
2023-03-06T00:28:48.765Z,98467.31
2023-03-06T00:32:50.593Z,98460.47
2023-03-06T00:36:53.709Z,98452.13
2023-03-06T00:40:55.123Z,98461.09
2023-03-06T00:44:56.579Z,98453.44
2023-03-06T00:48:58.032Z,98437.22
2023-03-06T00:53:00.824Z,98443.44
2023-03-06T00:57:02.288Z,98442.25
2023-03-06T01:01:04.204Z,98427.28
2023-03-06T01:05:07.405Z,98425.63
2023-03-06T01:09:10.287Z,98430.19
2023-03-06T01:13:11.729Z,98422.75
2023-03-06T01:17:13.178Z,98417.59
2023-03-06T01:21:14.718Z,98416.34
2023-03-06T01:25:17.751Z,98404.72
2023-03-06T01:29:19.249Z,98405.19
2023-03-06T01:33:20.740Z,98402.06
2023-03-06T01:37:22.407Z,98393.13
2023-03-06T01:41:25.222Z,98390.03
2023-03-06T01:46:04.216Z,98396.28
2023-03-06T01:50:08.642Z,98383.84
2023-03-06T01:54:13.430Z,98386.34
2023-03-06T01:58:18.831Z,98383.47
2023-03-06T02:02:20.830Z,98375.19
2023-03-06T02:06:22.390Z,98375.56
2023-03-06T02:10:23.948Z,98374.34
2023-03-06T02:14:27.297Z,98367.91
2023-03-06T02:18:29.553Z,98365.63
2023-03-06T02:22:37.473Z,98369.97
2023-03-06T02:26:42.321Z,98361.06
2023-03-06T02:30:45.839Z,98361.50
2023-03-06T02:34:53.864Z,98352.81
2023-03-06T02:38:55.600Z,98351.97
2023-03-06T02:42:58.987Z,98345.34
2023-03-06T02:47:00.500Z,98342.03
2023-03-06T02:51:01.956Z,98340.38
2023-03-06T02:55:04.230Z,98330.00
2023-03-06T02:59:07.018Z,98339.13
2023-03-06T03:03:08.585Z,98333.75
2023-03-06T03:07:10.080Z,98325.88
2023-03-06T03:11:11.645Z,98325.50
2023-03-06T03:15:14.772Z,98314.72
2023-03-06T03:19:16.228Z,98312.63
2023-03-06T03:23:17.775Z,98314.28
2023-03-06T03:27:19.212Z,98307.25
2023-03-06T03:31:22.096Z,98300.22
2023-03-06T03:35:23.567Z,98299.41
2023-03-06T03:39:25.077Z,98295.88
2023-03-06T03:43:26.526Z,98299.63
2023-03-06T03:47:29.318Z,98297.34
2023-03-06T03:51:31.396Z,98289.50
2023-03-06T03:55:32.828Z,98283.69
2023-03-06T03:59:34.265Z,98289.28
2023-03-06T04:03:37.063Z,98281.19
2023-03-06T04:07:38.920Z,98270.03
2023-03-06T04:11:40.413Z,98267.75
2023-03-06T04:15:41.838Z,98262.56
2023-03-06T04:19:44.620Z,98256.78
2023-03-06T04:23:46.068Z,98252.63
2023-03-06T04:27:47.504Z,98246.38
2023-03-06T04:31:48.965Z,98246.81
2023-03-06T04:35:51.829Z,98246.38
2023-03-06T04:39:53.307Z,98242.66
2023-03-06T04:43:54.849Z,98236.88
2023-03-06T04:47:56.354Z,98237.25
2023-03-06T04:51:59.187Z,98240.16
2023-03-06T04:56:00.707Z,98230.22
2023-03-06T05:00:02.341Z,98227.31
2023-03-06T05:04:04.089Z,98218.19
2023-03-06T05:08:07.263Z,98224.00
2023-03-06T05:12:08.719Z,98220.69
2023-03-06T05:16:10.251Z,98221.13
2023-03-06T05:20:13.003Z,98217.59
2023-03-06T05:24:15.798Z,98203.91
2023-03-06T05:28:17.305Z,98215.75
2023-03-06T05:32:18.818Z,98219.50
2023-03-06T05:36:20.256Z,98215.78
2023-03-06T05:40:23.085Z,98217.06
2023-03-06T05:44:24.515Z,98220.34
2023-03-06T05:48:25.929Z,98219.75
2023-03-06T05:52:27.430Z,98212.88
2023-03-06T05:56:30.195Z,98212.88
2023-03-06T06:00:31.641Z,98211.22
2023-03-06T06:04:33.154Z,98217.44
2023-03-06T06:08:34.716Z,98219.91
2023-03-06T06:12:37.506Z,98218.25
2023-03-06T06:16:38.921Z,98215.94
2023-03-06T06:20:40.379Z,98205.38
2023-03-06T06:24:42.008Z,98205.41
2023-03-06T06:28:44.787Z,98211.22
2023-03-06T06:32:46.615Z,98209.94
2023-03-06T06:36:48.424Z,98203.72
2023-03-06T06:41:25.521Z,98207.00
2023-03-06T06:45:13.050Z,98213.59
2023-03-06T06:49:14.740Z,98213.53
2023-03-06T06:53:16.175Z,98211.44
2023-03-06T06:57:17.804Z,98207.69
2023-03-06T07:01:21.126Z,98215.53
2023-03-06T07:05:22.859Z,98213.00
2023-03-06T07:09:24.889Z,98205.25
2023-03-06T07:13:26.449Z,98198.56
2023-03-06T07:17:29.251Z,98203.78
2023-03-06T07:21:30.909Z,98197.50
2023-03-06T07:25:32.357Z,98201.16
2023-03-06T07:29:33.882Z,98193.69
2023-03-06T07:33:36.795Z,98186.56
2023-03-06T07:37:38.229Z,98190.28
2023-03-06T07:41:39.678Z,98180.28
2023-03-06T07:45:41.153Z,98186.44
2023-03-06T07:49:43.929Z,98192.78
2023-03-06T07:53:45.639Z,98200.75
2023-03-06T07:57:49.805Z,98200.75
2023-03-06T08:01:51.301Z,98193.31
2023-03-06T08:05:54.108Z,98192.59
2023-03-06T08:09:55.575Z,98185.59
2023-03-06T08:13:58.050Z,98183.72
2023-03-06T08:17:59.544Z,98192.28
2023-03-06T08:22:04.062Z,98196.19
2023-03-06T08:26:07.396Z,98200.88
2023-03-06T08:30:10.209Z,98208.78
2023-03-06T08:34:14.482Z,98206.22
2023-03-06T08:38:17.275Z,98211.56
2023-03-06T08:42:18.717Z,98209.69
2023-03-06T08:46:22.336Z,98210.16
2023-03-06T08:50:23.775Z,98209.69
2023-03-06T08:54:26.615Z,98202.63
2023-03-06T08:58:29.013Z,98196.03
2023-03-06T09:02:30.493Z,98208.03
2023-03-06T09:06:35.285Z,98199.50
2023-03-06T09:10:38.159Z,98208.66
2023-03-06T09:14:39.668Z,98208.03
2023-03-06T09:18:41.375Z,98202.19
2023-03-06T09:22:43.033Z,98205.00
2023-03-06T09:26:47.971Z,98205.28
2023-03-06T09:30:50.668Z,98200.78
2023-03-06T09:34:52.156Z,98201.25
2023-03-06T09:38:53.587Z,98203.63
2023-03-06T09:42:56.404Z,98199.66
2023-03-06T09:47:20.119Z,98188.78
2023-03-06T09:51:28.551Z,98190.41
2023-03-06T09:55:32.677Z,98185.94
2023-03-06T09:59:35.722Z,98189.97
2023-03-06T10:03:44.355Z,98175.69
2023-03-06T10:07:50.781Z,98185.41
2023-03-06T10:11:56.361Z,98186.69
2023-03-06T10:16:06.787Z,98184.78
2023-03-06T10:20:20.856Z,98178.44
2023-03-06T10:24:50.131Z,98179.03
2023-03-06T10:29:05.958Z,98182.22
2023-03-06T10:33:21.211Z,98182.06
2023-03-06T10:37:22.939Z,98176.81
2023-03-06T10:41:27.232Z,98173.66
2023-03-06T10:45:31.271Z,98177.25
2023-03-06T10:49:38.385Z,98177.72
2023-03-06T10:53:50.020Z,98179.53
2023-03-06T10:57:51.926Z,98179.09
2023-03-06T11:01:56.344Z,98181.84
2023-03-06T11:06:06.543Z,98182.69
2023-03-06T11:10:18.179Z,98184.75
2023-03-06T11:14:21.464Z,98177.06
2023-03-06T11:18:29.542Z,98172.66
2023-03-06T11:22:32.842Z,98180.00
2023-03-06T11:26:47.058Z,98165.47
2023-03-06T11:30:52.163Z,98164.94
2023-03-06T11:34:58.960Z,98152.44
2023-03-06T11:39:04.128Z,98158.97
2023-03-06T11:43:17.137Z,98153.88
2023-03-06T11:47:23.185Z,98139.78
2023-03-06T11:51:30.209Z,98138.94
2023-03-06T11:55:50.508Z,98135.63
2023-03-06T12:00:12.069Z,98132.56
2023-03-06T12:04:37.800Z,98129.69
2023-03-06T12:08:51.163Z,98121.72
2023-03-06T12:17:46.025Z,98110.31
2023-03-06T12:21:58.651Z,98108.72
2023-03-06T12:26:05.377Z,98098.75
2023-03-06T12:30:28.766Z,98102.41
2023-03-06T12:34:49.462Z,98092.78
2023-03-06T12:39:16.133Z,98102.19
2023-03-06T12:43:47.842Z,98090.53
2023-03-06T12:47:54.390Z,98093.84
2023-03-06T12:51:57.267Z,98098.66
2023-03-06T12:56:01.812Z,98091.81
2023-03-06T13:00:04.158Z,98083.22
2023-03-06T13:04:34.835Z,98090.88
2023-03-06T13:09:02.847Z,98082.66
2023-03-06T13:13:27.407Z,98091.56
2023-03-06T13:17:37.055Z,98083.22
2023-03-06T13:22:25.494Z,98087.94
2023-03-06T13:26:50.734Z,98072.19
2023-03-06T13:30:53.278Z,98073.44
2023-03-06T13:34:54.995Z,98077.28
2023-03-06T13:39:07.881Z,98070.56
2023-03-06T13:43:21.536Z,98062.38
2023-03-06T13:47:32.406Z,98058.97
2023-03-06T13:51:36.420Z,98055.25
2023-03-06T13:55:49.717Z,98057.19
2023-03-06T14:00:34.832Z,98054.38
2023-03-06T14:04:41.894Z,98050.03
2023-03-06T14:08:44.310Z,98055.34
2023-03-06T14:13:01.120Z,98048.16
2023-03-06T14:17:05.241Z,98045.16
2023-03-06T14:21:11.223Z,98053.44
2023-03-06T14:25:17.735Z,98049.03
2023-03-06T14:29:22.102Z,98057.22
2023-03-06T14:33:30.042Z,98056.22
2023-03-06T14:37:36.547Z,98053.63
2023-03-06T14:41:38.746Z,98057.91
2023-03-06T14:45:50.812Z,98046.09
2023-03-06T14:50:19.743Z,98056.56
2023-03-06T14:54:25.960Z,98055.72
2023-03-06T14:58:29.701Z,98038.16
2023-03-06T15:02:32.922Z,98040.63
2023-03-06T15:06:40.063Z,98055.03
2023-03-06T15:10:41.694Z,98054.88
2023-03-06T15:14:49.294Z,98046.38
2023-03-06T15:18:57.328Z,98048.47
2023-03-06T15:22:58.783Z,98039.78
2023-03-06T15:27:04.152Z,98040.72
2023-03-06T15:31:21.794Z,98041.72
2023-03-06T15:35:30.248Z,98046.41
2023-03-06T15:39:37.276Z,98065.34
2023-03-06T15:43:39.895Z,98067.91
2023-03-06T15:47:41.510Z,98078.41
2023-03-06T15:51:44.333Z,98088.63
2023-03-06T15:55:46.259Z,98079.97
2023-03-06T15:59:47.801Z,98084.38
2023-03-06T16:03:49.555Z,98092.22
2023-03-06T16:07:52.703Z,98093.09
2023-03-06T16:11:54.224Z,98099.38
2023-03-06T16:15:56.044Z,98086.53
2023-03-06T16:19:57.489Z,98089.47
2023-03-06T16:24:00.264Z,98083.09
2023-03-06T16:28:02.286Z,98086.13
2023-03-06T16:32:04.010Z,98084.25
2023-03-06T16:36:11.937Z,98075.75
2023-03-06T16:40:19.284Z,98081.53
2023-03-06T16:44:21.038Z,98075.44
2023-03-06T16:48:22.542Z,98078.94
2023-03-06T16:52:24.301Z,98070.22
2023-03-06T16:56:27.101Z,98073.53
2023-03-06T17:00:30.112Z,98072.69
2023-03-06T17:04:35.696Z,98066.47
2023-03-06T17:08:37.236Z,98069.59
2023-03-06T17:12:40.146Z,98075.78
2023-03-06T17:16:41.672Z,98074.38
2023-03-06T17:20:48.447Z,98081.41
2023-03-06T17:24:50.054Z,98083.50
2023-03-06T17:28:52.917Z,98087.16
2023-03-06T17:32:54.388Z,98101.25
2023-03-06T17:36:56.150Z,98101.66
2023-03-06T17:41:02.127Z,98105.78
2023-03-06T17:45:06.317Z,98112.81
2023-03-06T17:49:07.793Z,98125.69
2023-03-06T17:53:09.244Z,98137.06
2023-03-06T17:57:10.702Z,98127.16
2023-03-06T18:01:16.240Z,98124.47
2023-03-06T18:05:17.984Z,98125.69
2023-03-06T18:09:19.512Z,98128.53
2023-03-06T18:13:20.986Z,98122.34
2023-03-06T18:17:23.814Z,98124.00
2023-03-06T18:21:25.597Z,98131.13
2023-03-06T18:25:27.022Z,98131.75
2023-03-06T18:29:28.470Z,98132.97
2023-03-06T18:33:31.256Z,98136.53
2023-03-06T18:37:32.695Z,98137.97
2023-03-06T18:41:35.071Z,98137.78
2023-03-06T18:45:36.582Z,98142.75
2023-03-06T18:49:40.550Z,98140.25
2023-03-06T18:53:42.811Z,98135.22
2023-03-06T18:57:44.285Z,98143.72
2023-03-06T19:01:47.139Z,98143.91
2023-03-06T19:05:49.968Z,98137.31
2023-03-06T19:09:51.474Z,98137.72
2023-03-06T19:13:52.934Z,98136.50
2023-03-06T19:17:54.476Z,98142.09
2023-03-06T19:21:58.757Z,98134.84
2023-03-06T19:26:00.576Z,98138.16
2023-03-06T19:30:02.016Z,98139.78
2023-03-06T19:34:03.534Z,98130.91
2023-03-06T19:38:06.302Z,98134.88
2023-03-06T19:42:07.741Z,98140.53
2023-03-06T19:46:12.163Z,98130.41
2023-03-06T19:50:13.635Z,98131.25
2023-03-06T19:54:16.429Z,98135.41
2023-03-06T19:58:17.875Z,98139.16
2023-03-06T20:02:19.348Z,98132.53
2023-03-06T20:06:20.815Z,98129.66
2023-03-06T20:10:23.688Z,98131.53
2023-03-06T20:14:25.918Z,98133.78
2023-03-06T20:18:27.425Z,98123.88
2023-03-06T20:22:28.861Z,98123.50
2023-03-06T20:26:31.854Z,98114.63
2023-03-06T20:30:38.163Z,98116.09
2023-03-06T20:34:40.652Z,98119.19
2023-03-06T20:38:42.522Z,98123.13
2023-03-06T20:42:45.348Z,98122.66
2023-03-06T20:46:46.914Z,98112.72
2023-03-06T20:50:58.721Z,98111.06
2023-03-06T20:55:00.346Z,98116.84
2023-03-06T20:59:03.278Z,98104.41
2023-03-06T21:03:04.710Z,98103.94
2023-03-06T21:07:06.534Z,98099.38
2023-03-06T21:11:08.018Z,98087.31
2023-03-06T21:15:11.632Z,98085.88
2023-03-06T21:19:13.118Z,98076.97
2023-03-06T21:23:14.624Z,98081.94
2023-03-06T21:27:16.030Z,98072.91
2023-03-06T21:31:21.041Z,98073.78
2023-03-06T21:35:22.731Z,98073.41
2023-03-06T21:39:24.212Z,98072.25
2023-03-06T21:43:25.644Z,98073.31
2023-03-06T21:47:28.423Z,98061.53
2023-03-06T21:51:29.852Z,98064.88
2023-03-06T21:55:31.490Z,98069.81
2023-03-06T21:59:33.752Z,98067.34
2023-03-06T22:03:36.562Z,98072.72
2023-03-06T22:07:38.323Z,98077.28
2023-03-06T22:11:39.835Z,98054.13
2023-03-06T22:15:49.123Z,98050.22
2023-03-06T22:19:52.470Z,98046.66
2023-03-06T22:23:55.691Z,98042.34
2023-03-06T22:27:57.096Z,98041.28
2023-03-06T22:31:58.652Z,98031.34
2023-03-06T22:36:02.542Z,98025.53
2023-03-06T22:40:04.595Z,98027.63
2023-03-06T22:44:07.238Z,98030.53
2023-03-06T22:48:11.066Z,98024.78
2023-03-06T22:52:15.257Z,98027.25
2023-03-06T22:56:18.544Z,98022.09
2023-03-06T23:00:20.105Z,98031.13
2023-03-06T23:04:21.654Z,98023.50
2023-03-06T23:08:24.469Z,98015.19
2023-03-06T23:12:25.916Z,98012.25
2023-03-06T23:16:27.384Z,98010.97
2023-03-06T23:20:28.821Z,98008.06
2023-03-06T23:24:31.582Z,98010.94
2023-03-06T23:28:33.936Z,98005.97
2023-03-06T23:32:35.394Z,98002.28
2023-03-06T23:36:36.883Z,97995.66
2023-03-06T23:40:40.451Z,97991.34
2023-03-06T23:44:41.899Z,97981.19
2023-03-06T23:48:44.456Z,97978.91
2023-03-06T23:52:45.933Z,97985.28
2023-03-06T23:56:48.716Z,97974.91
